To NAV CANADA Home Page Login to a new session Search on AWWS site Feedback and Comments Disclaimer Vers la page française équivalente Tips FAQ What's new on the site To the Forecasts and Observations / NOTAM section To "File a Flight Plan" website Publications and other links Update of the User's profile FIC Telephone Numbers My Weather Data Folder Route Weather Data Regional Weather Data Local Weather Data To the Forecasts and Observations / NOTAM section
Request Generated 04/19/2014 at 01:47:25 UTC . Weather information available at that time is displayed.

METAR/TAF

MEDICINE HAT/AB    

METAR CYXH 190100Z 24019G29KT 30SM BKN090 08/02 A2960 RMK AC5 SLP036
DENSITY ALT 2400FT=
METAR CYXH 190000Z 25025G31KT 30SM FEW075 BKN090 12/M01 A2958 RMK
AC2AC4 VIRGA N SLP027 DENSITY ALT 2800FT=
METAR CYXH 182300Z 24022G31KT 30SM BKN090 11/M02 A2957 RMK AC7 VIRGA
ALQ SLP022 DENSITY ALT 2800FT=

TAF CYXH 182346Z 1900/1912 24022G32KT P6SM SCT060 BKN090 TEMPO
1900/1903 27030G40KT P6SM -SHRA BKN040 PROB30 1900/1902
VRB30G40KT 3SM TSRA BR BKN025CB
FM190300 27015G25KT P6SM BKN030 TEMPO 1903/1907 P6SM -SHRA BKN020
FM190700 30015G25KT P6SM -SHRASN BKN025 TEMPO 1907/1909 1SM -SHSN
VV010
FM190900 30012KT P6SM BKN025 TEMPO 1909/1911 BKN015
RMK NXT FCST BY 190600Z=
Your time UTC time
Weather data provided by Environment Canada and NAV CANADA